createdAt,value
2023-04-17T00:00:50.772Z,31.40
2023-04-17T00:03:20.086Z,31.40
2023-04-17T00:05:49.517Z,31.40
2023-04-17T00:08:23.340Z,31.40
2023-04-17T00:11:00.670Z,31.50
2023-04-17T00:13:22.628Z,31.50
2023-04-17T00:15:51.924Z,31.50
2023-04-17T00:18:21.436Z,31.50
2023-04-17T00:20:50.837Z,31.50
2023-04-17T00:23:20.232Z,31.50
2023-04-17T00:25:49.642Z,31.60
2023-04-17T00:28:18.945Z,31.60
2023-04-17T00:30:48.245Z,31.60
2023-04-17T00:33:17.436Z,31.60
2023-04-17T00:35:46.648Z,31.60
2023-04-17T00:38:15.948Z,31.60
2023-04-17T00:40:45.334Z,31.60
2023-04-17T00:43:14.417Z,31.60
2023-04-17T00:45:43.664Z,31.70
2023-04-17T00:48:12.937Z,31.70
2023-04-17T00:50:45.114Z,31.70
2023-04-17T00:53:14.522Z,31.70
2023-04-17T00:55:43.810Z,31.70
2023-04-17T00:58:13.113Z,31.70
2023-04-17T01:00:42.537Z,31.70
2023-04-17T01:03:12.017Z,31.70
2023-04-17T01:05:41.424Z,31.80
2023-04-17T01:08:10.611Z,31.80
2023-04-17T01:10:40.027Z,31.80
2023-04-17T01:13:09.830Z,31.80
2023-04-17T01:15:39.346Z,31.80
2023-04-17T01:18:08.802Z,31.80
2023-04-17T01:20:38.018Z,31.80
2023-04-17T01:23:07.235Z,31.90
2023-04-17T01:25:36.750Z,31.90
2023-04-17T01:28:06.347Z,31.90
2023-04-17T01:30:35.994Z,31.90
2023-04-17T01:33:06.772Z,31.90
2023-04-17T01:35:35.989Z,32.00
2023-04-17T01:38:05.190Z,32.00
2023-04-17T01:40:34.496Z,31.90
2023-04-17T01:43:03.681Z,32.00
2023-04-17T01:45:32.781Z,32.00
2023-04-17T01:48:02.020Z,32.00
2023-04-17T01:50:31.080Z,32.10
2023-04-17T01:53:00.069Z,32.10
2023-04-17T01:55:29.115Z,32.10
2023-04-17T01:57:58.266Z,32.10
2023-04-17T02:00:27.366Z,32.10
2023-04-17T02:02:56.710Z,32.10
2023-04-17T02:05:25.851Z,32.20
2023-04-17T02:07:54.954Z,32.20
2023-04-17T02:10:23.844Z,32.20
2023-04-17T02:12:53.032Z,32.30
2023-04-17T02:15:21.936Z,32.30
2023-04-17T02:17:50.876Z,32.30
2023-04-17T02:20:19.822Z,32.30
2023-04-17T02:22:48.918Z,32.40
2023-04-17T02:25:17.908Z,32.40
2023-04-17T02:27:46.929Z,32.40
2023-04-17T02:30:16.019Z,32.40
2023-04-17T02:32:45.033Z,32.40
2023-04-17T02:35:14.286Z,32.50
2023-04-17T02:37:43.499Z,32.50
2023-04-17T02:40:12.724Z,32.50
2023-04-17T02:42:41.674Z,32.50
2023-04-17T02:45:10.768Z,32.50
2023-04-17T02:47:40.812Z,32.60
2023-04-17T02:50:10.707Z,32.60
2023-04-17T02:52:41.244Z,32.60
2023-04-17T02:55:10.556Z,32.60
2023-04-17T02:57:40.350Z,32.60
2023-04-17T03:00:09.443Z,32.70
2023-04-17T03:02:38.816Z,32.70
2023-04-17T03:05:08.156Z,32.70
2023-04-17T03:07:37.352Z,32.70
2023-04-17T03:10:06.651Z,32.70
2023-04-17T03:12:35.765Z,32.70
2023-04-17T03:15:06.423Z,32.80
2023-04-17T03:17:35.290Z,32.80
2023-04-17T03:20:04.382Z,32.80
2023-04-17T03:22:33.467Z,32.80
2023-04-17T03:25:02.767Z,32.90
2023-04-17T03:27:33.186Z,32.90
2023-04-17T03:30:02.393Z,32.90
2023-04-17T03:32:32.248Z,32.90
2023-04-17T03:35:01.206Z,33.00
2023-04-17T03:37:30.288Z,33.00
2023-04-17T03:39:59.490Z,33.00
2023-04-17T03:42:28.683Z,33.00
2023-04-17T03:44:57.589Z,33.00
2023-04-17T03:47:27.017Z,33.10
2023-04-17T03:49:57.303Z,33.10
2023-04-17T03:52:27.222Z,33.10
2023-04-17T03:54:57.833Z,33.20
2023-04-17T03:57:27.038Z,33.20
2023-04-17T03:59:56.239Z,33.20
2023-04-17T04:02:25.857Z,33.30
2023-04-17T04:04:55.718Z,33.30
2023-04-17T04:07:25.059Z,33.30
2023-04-17T04:09:54.571Z,33.30
2023-04-17T04:12:23.871Z,33.40
2023-04-17T04:14:52.760Z,33.40
2023-04-17T04:17:21.914Z,33.40
2023-04-17T04:19:51.059Z,33.50
2023-04-17T04:22:20.449Z,33.50
2023-04-17T04:24:50.774Z,33.50
2023-04-17T04:27:20.080Z,33.50
2023-04-17T04:29:49.285Z,33.60
2023-04-17T04:32:19.746Z,33.60
2023-04-17T04:34:48.877Z,33.60
2023-04-17T04:37:18.716Z,33.70
2023-04-17T04:39:48.432Z,33.70
2023-04-17T04:42:17.313Z,33.70
2023-04-17T04:44:56.868Z,33.60
2023-04-17T04:47:27.338Z,33.70
2023-04-17T04:49:56.486Z,33.70
2023-04-17T04:52:25.998Z,33.70
2023-04-17T04:54:56.622Z,33.80
2023-04-17T04:57:26.242Z,33.80
2023-04-17T04:59:56.659Z,33.80
2023-04-17T05:02:30.029Z,33.90
2023-04-17T05:04:59.519Z,33.90
2023-04-17T05:07:29.985Z,33.90
2023-04-17T05:09:59.187Z,33.90
2023-04-17T05:12:29.517Z,33.90
2023-04-17T05:14:58.502Z,33.90
2023-04-17T05:17:29.078Z,34.00
2023-04-17T05:19:58.130Z,34.00
2023-04-17T05:22:27.021Z,34.00
2023-04-17T05:25:00.104Z,34.00
2023-04-17T05:27:29.208Z,34.00
2023-04-17T05:29:58.302Z,34.10
2023-04-17T05:32:27.537Z,34.10
2023-04-17T05:34:57.926Z,34.10
2023-04-17T05:37:27.941Z,34.10
2023-04-17T05:39:57.043Z,34.10
2023-04-17T05:42:26.237Z,34.20
2023-04-17T05:44:55.545Z,34.20
2023-04-17T05:47:24.444Z,34.20
2023-04-17T05:49:54.339Z,34.20
2023-04-17T05:52:23.467Z,34.30
2023-04-17T05:54:52.662Z,34.30
2023-04-17T05:57:22.146Z,34.30
2023-04-17T05:59:51.261Z,34.30
2023-04-17T06:02:20.865Z,34.30
2023-04-17T06:04:50.146Z,34.40
2023-04-17T06:07:19.237Z,34.40
2023-04-17T06:09:48.243Z,34.40
2023-04-17T06:12:17.117Z,34.40
2023-04-17T06:14:46.322Z,34.50
2023-04-17T06:17:16.118Z,34.50
2023-04-17T06:19:45.112Z,34.50
2023-04-17T06:22:14.223Z,34.60
2023-04-17T06:24:43.114Z,34.60
2023-04-17T06:27:12.628Z,34.60
2023-04-17T06:29:41.611Z,34.60
2023-04-17T06:32:11.030Z,34.60
2023-04-17T06:34:52.575Z,34.60
2023-04-17T06:37:10.615Z,34.70
2023-04-17T06:39:39.942Z,34.70
2023-04-17T06:42:09.253Z,34.70
2023-04-17T06:44:39.573Z,34.70
2023-04-17T06:47:12.141Z,34.70
2023-04-17T06:49:41.154Z,34.80
2023-04-17T06:52:10.039Z,34.80
2023-04-17T06:54:39.233Z,34.80
2023-04-17T06:57:08.329Z,34.80
2023-04-17T06:59:37.214Z,34.80
2023-04-17T07:02:06.308Z,34.80
2023-04-17T07:04:35.314Z,34.80
2023-04-17T07:07:04.609Z,34.90
2023-04-17T07:09:33.798Z,34.90
2023-04-17T07:12:03.108Z,34.90
2023-04-17T07:14:36.360Z,34.90
2023-04-17T07:17:05.688Z,34.90
2023-04-17T07:19:34.891Z,34.90
2023-04-17T07:22:04.025Z,34.90
2023-04-17T07:24:33.309Z,34.90
2023-04-17T07:27:02.589Z,35.00
2023-04-17T07:29:31.899Z,35.00
2023-04-17T07:32:01.137Z,35.00
2023-04-17T07:34:30.286Z,35.00
2023-04-17T07:36:59.497Z,35.00
2023-04-17T07:39:28.903Z,35.00
2023-04-17T07:41:57.956Z,35.10
2023-04-17T07:44:27.189Z,35.10
2023-04-17T07:46:56.430Z,35.10
2023-04-17T07:49:25.487Z,35.10
2023-04-17T07:51:54.786Z,35.20
2023-04-17T07:54:24.081Z,35.20
2023-04-17T07:56:53.378Z,35.20
2023-04-17T07:59:22.985Z,35.20
2023-04-17T08:01:52.386Z,35.20
2023-04-17T08:04:21.853Z,35.20
2023-04-17T08:06:51.084Z,35.20
2023-04-17T08:09:20.503Z,35.30
2023-04-17T08:11:56.888Z,35.30
2023-04-17T08:14:20.116Z,35.30
2023-04-17T08:16:49.363Z,35.30
2023-04-17T08:19:18.610Z,35.30
2023-04-17T08:21:47.696Z,35.30
2023-04-17T08:24:19.141Z,35.30
2023-04-17T08:26:47.338Z,35.40
2023-04-17T08:29:16.631Z,35.30
2023-04-17T08:31:45.937Z,35.40
2023-04-17T08:34:15.712Z,35.40
2023-04-17T08:36:45.162Z,35.40
2023-04-17T08:39:14.873Z,35.40
2023-04-17T08:41:44.282Z,35.40
2023-04-17T08:44:13.358Z,35.40
2023-04-17T08:46:42.593Z,35.40
2023-04-17T08:49:12.054Z,35.40
2023-04-17T08:51:41.482Z,35.40
2023-04-17T08:54:10.881Z,35.50
2023-04-17T08:56:39.951Z,35.50
2023-04-17T08:59:08.883Z,35.50
2023-04-17T09:01:38.184Z,35.50
2023-04-17T09:04:07.816Z,35.50
2023-04-17T09:06:37.171Z,35.50
2023-04-17T09:09:06.371Z,35.50
2023-04-17T09:11:35.668Z,35.60
2023-04-17T09:14:04.759Z,35.60
2023-04-17T09:16:33.914Z,35.60
2023-04-17T13:01:32.165Z,33.80
2023-04-17T13:04:01.822Z,33.80
2023-04-17T13:06:31.050Z,33.90
2023-04-17T13:08:59.937Z,34.00
2023-04-17T13:11:28.801Z,34.10
2023-04-17T13:13:57.935Z,34.20
2023-04-17T13:16:27.136Z,34.30
2023-04-17T13:18:56.120Z,34.30
2023-04-17T13:21:25.230Z,34.40
2023-04-17T13:23:54.205Z,34.50
2023-04-17T13:26:23.090Z,34.50
2023-04-17T13:28:52.089Z,34.60
2023-04-17T13:31:21.348Z,34.60
2023-04-17T13:33:53.129Z,34.70
2023-04-17T13:36:21.173Z,34.60
2023-04-17T13:38:50.317Z,34.20
2023-04-17T13:41:19.213Z,33.20
2023-04-17T13:43:48.220Z,32.20
2023-04-17T13:46:17.510Z,31.40
2023-04-17T13:48:46.509Z,30.80
2023-04-17T13:51:15.392Z,30.30
2023-04-17T13:53:44.585Z,30.00
2023-04-17T13:56:13.474Z,29.80
2023-04-17T13:58:42.672Z,29.70
2023-04-17T14:01:11.793Z,29.70
2023-04-17T14:03:42.381Z,29.60
2023-04-17T14:06:11.182Z,29.30
2023-04-17T14:08:44.242Z,29.20
2023-04-17T14:11:12.979Z,29.20
2023-04-17T14:13:41.859Z,29.20
2023-04-17T14:16:13.760Z,29.20
2023-04-17T14:18:42.903Z,29.30
2023-04-17T14:21:12.018Z,29.30
2023-04-17T14:23:41.205Z,29.30
2023-04-17T14:26:10.204Z,29.50
2023-04-17T14:28:39.101Z,29.40
2023-04-17T14:31:08.243Z,29.50
2023-04-17T14:33:37.284Z,29.50
2023-04-17T14:36:06.224Z,29.50
2023-04-17T14:38:35.483Z,29.40
2023-04-17T14:41:04.824Z,29.40
2023-04-17T14:43:33.776Z,29.40
2023-04-17T14:46:02.668Z,29.30
2023-04-17T14:48:34.345Z,29.20
2023-04-17T14:51:02.099Z,29.10
2023-04-17T14:53:31.102Z,29.00
2023-04-17T14:56:00.289Z,28.90
2023-04-17T14:58:29.248Z,28.90
2023-04-17T15:00:58.493Z,28.80
2023-04-17T15:03:27.407Z,28.80
2023-04-17T15:05:56.656Z,28.70
2023-04-17T15:08:25.761Z,28.70
2023-04-17T15:10:54.955Z,28.70
2023-04-17T15:13:24.479Z,28.60
2023-04-17T15:15:53.308Z,28.60
2023-04-17T15:18:22.342Z,28.50
2023-04-17T15:20:51.195Z,28.50
2023-04-17T15:23:20.128Z,28.40
2023-04-17T15:25:49.378Z,28.30
2023-04-17T15:28:18.408Z,28.00
2023-04-17T15:30:47.300Z,27.70
2023-04-17T15:33:16.213Z,27.40
2023-04-17T15:35:45.195Z,27.30
2023-04-17T15:38:14.180Z,27.20
2023-04-17T15:40:42.972Z,27.10
2023-04-17T15:43:11.844Z,27.00
2023-04-17T15:45:40.992Z,27.00
2023-04-17T15:48:09.984Z,26.90
2023-04-17T15:50:39.044Z,26.90
2023-04-17T15:53:09.039Z,26.90
2023-04-17T15:55:38.475Z,26.90
2023-04-17T15:58:07.461Z,26.90
2023-04-17T16:00:36.665Z,26.80
2023-04-17T16:03:05.829Z,26.70
2023-04-17T16:05:34.855Z,26.70
2023-04-17T16:08:03.997Z,26.70
2023-04-17T16:10:33.349Z,26.70
2023-04-17T16:13:05.303Z,26.80
2023-04-17T16:15:34.251Z,26.80
2023-04-17T16:18:03.449Z,26.80
2023-04-17T16:20:32.386Z,26.90
2023-04-17T16:23:03.704Z,26.80
2023-04-17T16:25:32.637Z,26.70
2023-04-17T16:28:01.520Z,26.80
2023-04-17T16:30:30.406Z,26.80
2023-04-17T16:32:59.644Z,26.80
2023-04-17T16:35:28.906Z,26.80
2023-04-17T16:37:57.797Z,26.80
2023-04-17T16:40:28.442Z,26.80
2023-04-17T16:42:57.322Z,26.70
2023-04-17T16:45:26.220Z,26.70
2023-04-17T16:48:00.455Z,26.70
2023-04-17T16:50:29.851Z,26.70
2023-04-17T16:53:00.256Z,26.60
2023-04-17T16:55:29.144Z,26.60
2023-04-17T16:57:58.148Z,26.70
2023-04-17T17:00:27.243Z,26.70
2023-04-17T17:02:56.156Z,26.70
2023-04-17T17:05:26.653Z,26.60
2023-04-17T17:07:55.862Z,26.50
2023-04-17T17:10:24.953Z,26.50
2023-04-17T17:12:53.845Z,26.50
2023-04-17T17:15:22.705Z,26.60
2023-04-17T17:17:51.972Z,26.60
2023-04-17T17:20:20.921Z,26.60
2023-04-17T17:22:50.125Z,26.60
2023-04-17T17:25:19.323Z,26.60
2023-04-17T17:27:48.518Z,26.60
2023-04-17T17:30:17.539Z,26.60
2023-04-17T17:32:46.657Z,26.60
2023-04-17T17:35:15.606Z,26.60
2023-04-17T17:37:44.596Z,26.60
2023-04-17T17:40:14.008Z,26.60
2023-04-17T17:42:42.888Z,26.60
2023-04-17T17:45:11.780Z,26.50
2023-04-17T17:47:40.804Z,26.50
2023-04-17T17:50:09.985Z,26.50
2023-04-17T17:52:38.961Z,26.50
2023-04-17T17:55:08.064Z,26.40
2023-04-17T17:57:46.007Z,26.40
2023-04-17T18:00:07.213Z,26.40
2023-04-17T18:02:36.380Z,26.40
2023-04-17T18:05:05.700Z,26.30
2023-04-17T18:07:34.757Z,26.30
2023-04-17T18:10:03.768Z,26.30
2023-04-17T18:12:32.759Z,26.30
2023-04-17T18:15:02.068Z,26.30
2023-04-17T18:17:32.823Z,26.30
2023-04-17T18:20:01.620Z,26.30
2023-04-17T18:22:30.569Z,26.20
2023-04-17T18:24:59.883Z,26.20
2023-04-17T18:27:29.282Z,26.20
2023-04-17T18:29:58.682Z,26.10
2023-04-17T18:32:27.889Z,26.20
2023-04-17T18:34:57.180Z,26.10
2023-04-17T18:37:26.587Z,26.10
2023-04-17T18:39:55.766Z,26.10
2023-04-17T18:42:24.973Z,26.00
2023-04-17T18:44:58.890Z,26.00
2023-04-17T18:47:28.339Z,26.00
2023-04-17T18:49:57.590Z,26.00
2023-04-17T18:52:27.103Z,26.00
2023-04-17T18:54:56.406Z,26.00
2023-04-17T18:57:25.580Z,26.00
2023-04-17T18:59:55.002Z,26.00
2023-04-17T19:02:24.009Z,26.00
2023-04-17T19:04:54.480Z,26.00
2023-04-17T19:07:23.722Z,26.00
2023-04-17T19:09:53.019Z,26.00
2023-04-17T19:12:22.217Z,25.90
2023-04-17T19:14:54.389Z,25.90
2023-04-17T19:17:23.939Z,25.90
2023-04-17T19:19:52.882Z,25.80
2023-04-17T19:22:22.186Z,25.80
2023-04-17T19:24:51.386Z,25.90
2023-04-17T19:27:20.475Z,25.80
2023-04-17T19:29:49.575Z,25.80
2023-04-17T19:32:19.250Z,25.80
2023-04-17T19:37:40.312Z,25.80
2023-04-17T19:40:21.411Z,25.70
2023-04-17T19:42:39.725Z,25.80
2023-04-17T19:45:08.719Z,25.70
2023-04-17T19:47:37.893Z,25.80
2023-04-17T19:50:07.207Z,25.70
2023-04-17T19:52:36.117Z,25.70
2023-04-17T19:55:04.992Z,25.80
2023-04-17T19:57:34.200Z,25.80
2023-04-17T20:00:03.144Z,25.80
2023-04-17T20:02:33.723Z,25.70
2023-04-17T20:05:03.148Z,25.80
2023-04-17T20:07:32.124Z,25.80
2023-04-17T20:10:02.539Z,25.80
2023-04-17T20:12:31.646Z,25.70
2023-04-17T20:15:00.649Z,25.70
2023-04-17T20:17:29.664Z,25.70
2023-04-17T20:19:58.930Z,25.60
2023-04-17T20:22:27.923Z,25.60
2023-04-17T20:24:56.806Z,25.60
2023-04-17T20:27:25.912Z,25.60
2023-04-17T20:29:55.004Z,25.50
2023-04-17T20:32:23.910Z,25.50
2023-04-17T20:34:52.782Z,25.70
2023-04-17T20:37:23.711Z,25.80
2023-04-17T20:39:52.098Z,25.80
2023-04-17T20:42:21.011Z,25.90
2023-04-17T20:44:50.095Z,25.90
2023-04-17T20:47:19.080Z,25.90
2023-04-17T20:49:48.078Z,25.90
2023-04-17T20:52:17.276Z,26.00
2023-04-17T20:54:46.477Z,26.10
2023-04-17T20:57:15.472Z,26.10
2023-04-17T20:59:44.456Z,26.10
2023-04-17T21:02:13.555Z,26.10
2023-04-17T21:04:43.113Z,26.00
2023-04-17T21:07:12.251Z,25.90
2023-04-17T21:09:41.347Z,25.80
2023-04-17T21:12:10.244Z,25.80
2023-04-17T21:14:39.698Z,25.70
2023-04-17T21:17:09.247Z,25.60
2023-04-17T21:19:38.355Z,25.50
2023-04-17T21:22:07.245Z,25.60
2023-04-17T21:24:36.127Z,25.50
2023-04-17T21:27:05.130Z,25.50
2023-04-17T21:29:34.239Z,25.40
2023-04-17T21:32:03.189Z,25.40
2023-04-17T21:34:32.203Z,25.40
2023-04-17T21:37:01.329Z,25.50
2023-04-17T21:39:31.655Z,26.00
2023-04-17T21:42:00.541Z,26.60
2023-04-17T21:44:29.818Z,27.20
2023-04-17T21:46:58.710Z,27.80
2023-04-17T21:49:27.707Z,28.30
2023-04-17T21:51:56.699Z,28.70
2023-04-17T21:54:25.698Z,29.00
2023-04-17T21:56:54.579Z,29.30
2023-04-17T21:59:23.683Z,29.60
2023-04-17T22:01:52.605Z,29.80
2023-04-17T22:04:21.714Z,29.90
2023-04-17T22:06:50.765Z,30.10
2023-04-17T22:09:19.661Z,30.10
2023-04-17T22:11:48.521Z,30.20
2023-04-17T22:14:17.738Z,30.30
2023-04-17T22:16:46.905Z,30.40
2023-04-17T22:19:16.048Z,30.50
2023-04-17T22:21:44.924Z,30.60
2023-04-17T22:24:14.063Z,30.60
2023-04-17T22:26:43.223Z,30.70
2023-04-17T22:29:12.337Z,30.80
2023-04-17T22:31:41.313Z,30.90
2023-04-17T22:34:10.197Z,30.90
2023-04-17T22:36:39.196Z,31.00
2023-04-17T22:39:08.079Z,31.00
2023-04-17T22:41:37.082Z,31.10
2023-04-17T22:44:06.074Z,31.10
2023-04-17T22:46:35.215Z,31.10
2023-04-17T22:49:04.269Z,31.10
2023-04-17T22:51:33.476Z,31.20
2023-04-17T22:54:11.455Z,31.20
2023-04-17T22:56:32.879Z,31.20
2023-04-17T22:59:01.880Z,31.30
2023-04-17T23:01:30.816Z,31.30
2023-04-17T23:03:59.724Z,31.30
2023-04-17T23:06:28.652Z,31.30
2023-04-17T23:08:57.750Z,31.40
2023-04-17T23:11:26.631Z,31.50
2023-04-17T23:13:55.523Z,31.50
2023-04-17T23:16:24.548Z,31.50
2023-04-17T23:18:53.682Z,31.60
2023-04-17T23:21:22.908Z,31.60
2023-04-17T23:23:52.018Z,31.60
2023-04-17T23:26:20.899Z,31.60
2023-04-17T23:28:49.789Z,31.70
2023-04-17T23:31:18.823Z,31.70
2023-04-17T23:33:48.072Z,31.70
2023-04-17T23:36:16.977Z,31.80
2023-04-17T23:38:46.103Z,31.80
2023-04-17T23:41:15.480Z,31.80
2023-04-17T23:43:44.678Z,31.80
2023-04-17T23:46:13.915Z,31.80
2023-04-17T23:48:42.965Z,31.90
2023-04-17T23:51:12.381Z,31.90
2023-04-17T23:53:41.582Z,31.90
2023-04-17T23:56:10.663Z,31.90
2023-04-17T23:58:39.971Z,31.90
